WetterOnline ( https://www.wetteronline.de )

Wetter aktuell Windehausen

Aktuelles Wetter: Artern (166m)

6-stündlich | Neueste Meldungen
Ortszeit Temperatur Wetter
Fr, 27.11. 7:00 1.8° C bedeckt
Fr, 27.11. 1:00 1.4° C Nebel
Do, 26.11. 19:00 4.3° C bewölkt
Do, 26.11. 13:00 6.1° C leicht bewölkt
Do, 26.11. 7:00 2.4° C bedeckt
Do, 26.11. 1:00 1.1° C wolkenlos
Mi, 25.11. 19:00 4.2° C fast wolkenlos
Mi, 25.11. 13:00 6.6° C leicht bewölkt
Ortszeit Temperatur Wetter
Fr, 27.11. 9:30 2.2° C bedeckt
Fr, 27.11. 9:20 2.2° C bedeckt
Fr, 27.11. 9:10 2.1° C bedeckt
Fr, 27.11. 9:00 2.1° C bedeckt
Fr, 27.11. 8:50 2.1° C bedeckt
Fr, 27.11. 8:40 2.0° C bedeckt
Fr, 27.11. 8:30 1.9° C bedeckt
Fr, 27.11. 8:00 1.7° C bedeckt
Ortszeit Relative Feuchte Sichtweite
Fr, 27.11. 7:00 94% 10 km
Fr, 27.11. 1:00 100% 100 m
Do, 26.11. 19:00 87% 23 km
Do, 26.11. 13:00 80% 24 km
Do, 26.11. 7:00 93% 10 km
Do, 26.11. 1:00 94% 9 km
Mi, 25.11. 19:00 83% 30 km
Mi, 25.11. 13:00 75% 30 km
Ortszeit Relative Feuchte Sichtweite
Fr, 27.11. 9:30 91% 15 km
Fr, 27.11. 9:20 91% -
Fr, 27.11. 9:10 90% -
Fr, 27.11. 9:00 92% 14 km
Fr, 27.11. 8:50 92% -
Fr, 27.11. 8:40 92% -
Fr, 27.11. 8:30 94% 13 km
Fr, 27.11. 8:00 94% 13 km
Ortszeit Niederschlagsmenge Niederschlagsart
Fr, 27.11. 7:00 0.0 l/m2 in 12 Std. -
Fr, 27.11. 1:00 0.0 l/m2 in 6 Std. -
Do, 26.11. 19:00 0.0 l/m2 in 12 Std. -
Do, 26.11. 13:00 0.0 l/m2 in 6 Std. -
Do, 26.11. 7:00 0.0 l/m2 in 12 Std. -
Do, 26.11. 1:00 0.0 l/m2 in 6 Std. -
Mi, 25.11. 19:00 0.0 l/m2 in 12 Std. -
Mi, 25.11. 13:00 0.0 l/m2 in 6 Std. -
Ortszeit Niederschlagsmenge Niederschlagsart
Fr, 27.11. 9:30 0.0 l/m2 in 1 Std. -
Fr, 27.11. 9:20 keine Meldung -
Fr, 27.11. 9:10 keine Meldung -
Fr, 27.11. 9:00 0.0 l/m2 in 1 Std. -
Fr, 27.11. 8:50 keine Meldung -
Fr, 27.11. 8:40 keine Meldung -
Fr, 27.11. 8:30 0.0 l/m2 in 1 Std. -
Fr, 27.11. 8:00 0.0 l/m2 in 1 Std. -
Ortszeit Stärke Spitze Richtung
km/h Bft. km/h Grad Sektor
Fr, 27.11. 7:00 6 1 19 230° SW
Fr, 27.11. 1:00 13 3 20 240° SW
Do, 26.11. 19:00 11 2 25 230° SW
Do, 26.11. 13:00 13 3 28 220° SW
Do, 26.11. 7:00 13 3 24 220° SW
Do, 26.11. 1:00 7 2 22 220° SW
Mi, 25.11. 19:00 13 3 26 240° SW
Mi, 25.11. 13:00 14 3 25 210° SW
Ortszeit Stärke Spitze Richtung
km/h Bft. km/h Grad Sektor
Fr, 27.11. 9:30 6 1 11 240° SW
Fr, 27.11. 9:20 6 1 - 240° SW
Fr, 27.11. 9:10 7 2 - 230° SW
Fr, 27.11. 9:00 9 2 13 220° SW
Fr, 27.11. 8:50 9 2 - 220° SW
Fr, 27.11. 8:40 7 2 - 220° SW
Fr, 27.11. 8:30 7 2 11 220° SW
Fr, 27.11. 8:00 7 2 11 220° SW
Ortszeit Untergrenze Bedeckung Gattung
total tief tief mittel hoch
Fr, 27.11. 7:00 180 m 8/8 8/8 - - -
Fr, 27.11. 1:00 <30 m 8/8 0/8 - - -
Do, 26.11. 19:00 1800 m 7/8 7/8 - - -
Do, 26.11. 13:00 690 m 3/8 3/8 - - -
Do, 26.11. 7:00 270 m 8/8 8/8 - - -
Do, 26.11. 1:00 - 0/8 0/8 - - -
Mi, 25.11. 19:00 9000 m 1/8 0/8 - - -
Mi, 25.11. 13:00 10500 m 3/8 0/8 - - -
Ortszeit Bedeckungsgrad in Achtel und Wolkenuntergrenze
Fr, 27.11. 9:30 4(150m) 6(270m) 8(2100m)
Fr, 27.11. 9:20 4(150m) 6(270m) 8(2100m)
Fr, 27.11. 9:10 5(150m) 6(240m) 8(2100m)
Fr, 27.11. 9:00 6(270m) 8(2100m) 8(2100m)
Fr, 27.11. 8:50 6(270m) 8(2100m)
Fr, 27.11. 8:40 8(270m) 8(2100m)
Fr, 27.11. 8:30 8(270m) 8(2100m)
Fr, 27.11. 8:00 3(180m) 8(300m) 8(2100m)
Ortszeit Luftdruck NN (hPa) Tendenz (hPa in 3 Std.)
Fr, 27.11. 7:00 1022 - 0,1
Fr, 27.11. 1:00 1023 0,0
Do, 26.11. 19:00 1022 + 0,4
Do, 26.11. 13:00 1022 - 0,7
Do, 26.11. 7:00 1022 - 0,3
Do, 26.11. 1:00 1022 + 0,8
Mi, 25.11. 19:00 1020 + 0,5
Mi, 25.11. 13:00 1020 - 0,6
Ortszeit Luftdruck NN (hPa) Tendenz (hPa in 3 Std.)
Fr, 27.11. 9:30 1023 + 0,8
Fr, 27.11. 9:20 1023 keine Meldung
Fr, 27.11. 9:10 1022 keine Meldung
Fr, 27.11. 9:00 1022 + 0,5
Fr, 27.11. 8:50 1022 keine Meldung
Fr, 27.11. 8:40 1022 keine Meldung
Fr, 27.11. 8:30 1022 + 0,4
Fr, 27.11. 8:00 1022 + 0,3
Ortszeit Schneehöhe (cm)
Fr, 27.11. 7:00 0
Fr, 27.11. 1:00 0
Do, 26.11. 19:00 0
Do, 26.11. 13:00 0
Do, 26.11. 7:00 0
Do, 26.11. 1:00 0
Mi, 25.11. 19:00 0
Mi, 25.11. 13:00 0
Ortszeit Schneehöhe (cm)
Fr, 27.11. 9:30 0
Fr, 27.11. 9:20 0
Fr, 27.11. 9:10 0
Fr, 27.11. 9:00 0
Fr, 27.11. 8:50 0
Fr, 27.11. 8:40 0
Fr, 27.11. 8:30 0
Fr, 27.11. 8:00 0
Link zu dieser Seite / Seite empfehlen

Das Wetter in ...